Time;durP1;ratioP1;P1;durP2;ratioP2;P2;SDS_P1;SDS_P2;PMS_P1;PMS_P2;Temp;Humidity;BMP_temperature;BMP_pressure;BME280_temperature;BME280_humidity;BME280_pressure;Samples;Min_cycle;Max_cycle;Signal;HPM_P1;HPM_P2
2022/11/13 00:02:08;;;;;;;;;;;;;;;20.57;60.57;102683.63;5069310;28;2780;-57
2022/11/13 00:04:53;;;;;;;;;;;;;;;20.57;60.52;102680.75;5075820;28;2654;-57
2022/11/13 00:07:38;;;;;;;;;;;;;;;20.56;60.45;102674.25;5075135;28;2869;-57
2022/11/13 00:10:23;;;;;;;;;;;;;;;20.56;60.60;102682.09;5071943;28;2785;-57
2022/11/13 00:13:08;;;;;;;;;;;;;;;20.55;60.56;102675.59;5064850;28;2720;-56
2022/11/13 00:15:56;;;;;;;;;;;;;;;20.54;60.60;102674.06;5069571;28;2879;-56
2022/11/13 00:18:42;;;;;;;;;;;;;;;20.53;60.65;102678.31;5068427;28;2847;-55
2022/11/13 00:21:26;;;;;;;;;;;;;;;20.54;60.50;102673.31;5065892;28;3004;-56
2022/11/13 00:24:11;;;;;;;;;;;;;;;20.54;60.34;102673.31;5074182;28;2883;-56
2022/11/13 00:26:56;;;;;;;;;;;;;;;20.53;60.52;102666.06;5079060;28;1660;-57
2022/11/13 00:29:41;;;;;;;;;;;;;;;20.51;60.46;102658.78;5073446;28;2837;-56
2022/11/13 00:32:26;;;;;;;;;;;;;;;20.50;60.67;102660.16;5070226;28;2902;-57
2022/11/13 00:35:10;;;;;;;;;;;;;;;20.51;60.49;102655.91;5078923;28;2885;-57
2022/11/13 00:37:55;;;;;;;;;;;;;;;20.57;60.30;102658.53;5076667;28;2930;-57
2022/11/13 00:40:40;;;;;;;;;;;;;;;20.61;60.22;102660.91;5069456;28;2927;-58
2022/11/13 00:43:25;;;;;;;;;;;;;;;20.62;60.20;102662.44;5074491;28;2536;-56
2022/11/13 00:46:10;;;;;;;;;;;;;;;20.64;60.45;102653.97;5074487;28;2505;-56
2022/11/13 00:48:55;;;;;;;;;;;;;;;20.62;60.54;102656.69;5075837;28;2891;-57
2022/11/13 00:51:40;;;;;;;;;;;;;;;20.63;60.82;102652.44;5064498;28;2871;-57
2022/11/13 00:54:24;;;;;;;;;;;;;;;20.63;60.79;102652.44;5065211;28;2252;-57
2022/11/13 00:57:09;;;;;;;;;;;;;;;20.62;60.63;102650.94;5060499;28;2793;-57
2022/11/13 00:59:54;;;;;;;;;;;;;;;20.62;60.82;102662.44;5058249;28;2965;-57
2022/11/13 01:02:39;;;;;;;;;;;;;;;20.61;60.74;102652.28;5063068;28;2712;-57
2022/11/13 01:05:24;;;;;;;;;;;;;;;20.59;60.89;102644.28;5065154;28;1639;-57
2022/11/13 01:08:09;;;;;;;;;;;;;;;20.60;60.66;102642.16;5062214;28;2425;-57
2022/11/13 01:10:54;;;;;;;;;;;;;;;20.58;60.65;102639.88;5056147;28;2805;-56
2022/11/13 01:13:39;;;;;;;;;;;;;;;20.58;60.66;102624.72;5059729;28;2789;-57
2022/11/13 01:16:24;;;;;;;;;;;;;;;20.57;60.78;102626.84;5062210;28;2895;-56
2022/11/13 01:19:09;;;;;;;;;;;;;;;20.57;60.88;102618.22;5056339;28;2976;-57
2022/11/13 01:21:54;;;;;;;;;;;;;;;20.57;60.83;102626.06;5050279;28;2942;-57
2022/11/13 01:24:39;;;;;;;;;;;;;;;20.57;60.85;102626.06;5056308;28;2749;-57
2022/11/13 01:27:24;;;;;;;;;;;;;;;20.55;60.89;102618.03;5055057;28;2805;-57
2022/11/13 01:30:08;;;;;;;;;;;;;;;20.55;60.74;102623.00;5061807;28;2682;-57
2022/11/13 01:32:53;;;;;;;;;;;;;;;20.56;60.77;102618.78;5059412;28;2879;-57
2022/11/13 01:35:38;;;;;;;;;;;;;;;20.54;60.81;102610.00;5071179;28;2892;-57
2022/11/13 01:38:23;;;;;;;;;;;;;;;20.53;60.84;102608.50;5070076;28;2890;-57
2022/11/13 01:41:11;;;;;;;;;;;;;;;20.51;60.74;102620.63;5076512;28;2832;-57
2022/11/13 01:43:56;;;;;;;;;;;;;;;20.50;60.80;102611.22;5060073;28;2902;-56
2022/11/13 01:46:41;;;;;;;;;;;;;;;20.53;60.94;102608.50;5070231;28;2844;-57
2022/11/13 01:49:30;;;;;;;;;;;;;;;20.51;60.93;102606.22;5070896;28;3073;-57
2022/11/13 01:52:18;;;;;;;;;;;;;;;20.49;60.98;102612.56;5072250;28;2962;-57
2022/11/13 01:55:07;;;;;;;;;;;;;;;20.49;61.01;102606.81;5056160;28;2927;-57
2022/11/13 01:57:53;;;;;;;;;;;;;;;20.49;61.00;102611.81;5066613;28;2815;-56
2022/11/13 02:00:38;;;;;;;;;;;;;;;20.48;60.82;102607.44;5066952;28;2835;-57
2022/11/13 02:03:23;;;;;;;;;;;;;;;20.47;60.84;102603.78;5065802;28;2900;-56
2022/11/13 02:06:07;;;;;;;;;;;;;;;20.47;60.85;102600.16;5058635;28;3042;-56
2022/11/13 02:08:52;;;;;;;;;;;;;;;20.48;60.83;102595.94;5074391;28;2863;-55
2022/11/13 02:11:37;;;;;;;;;;;;;;;20.47;60.88;102594.41;5063356;28;2808;-57
2022/11/13 02:14:22;;;;;;;;;;;;;;;20.46;60.91;102587.91;5068357;28;2867;-57
2022/11/13 02:17:08;;;;;;;;;;;;;;;20.46;60.87;102587.16;5074844;28;2897;-56
2022/11/13 02:20:01;;;;;;;;;;;;;;;20.47;60.86;102591.53;5063817;28;2425;-57
2022/11/13 02:23:05;;;;;;;;;;;;;;;20.45;60.86;102580.63;5070115;28;2577;-57
2022/11/13 02:25:51;;;;;;;;;;;;;;;20.44;60.82;102584.88;5065251;28;2693;-57
2022/11/13 02:28:36;;;;;;;;;;;;;;;20.44;60.80;102584.88;5065550;28;2887;-57
2022/11/13 02:31:21;;;;;;;;;;;;;;;20.44;60.82;102579.13;5063332;28;2678;-55
2022/11/13 02:34:05;;;;;;;;;;;;;;;20.44;60.95;102579.13;5063148;28;2785;-57
2022/11/13 02:36:50;;;;;;;;;;;;;;;20.42;60.76;102564.56;5062307;28;2878;-57
2022/11/13 02:39:35;;;;;;;;;;;;;;;20.42;60.89;102573.22;5057601;28;2995;-57
2022/11/13 02:42:20;;;;;;;;;;;;;;;20.42;60.89;102558.81;5060483;28;2681;-57
2022/11/13 02:45:05;;;;;;;;;;;;;;;20.42;60.83;102564.56;5059691;28;2900;-57
2022/11/13 02:47:50;;;;;;;;;;;;;;;20.42;60.81;102564.56;5058541;28;2856;-56
2022/11/13 02:50:35;;;;;;;;;;;;;;;20.41;60.85;102559.41;5066932;28;2003;-57
2022/11/13 02:53:20;;;;;;;;;;;;;;;20.41;60.73;102551.56;5065491;28;2935;-56
2022/11/13 02:56:05;;;;;;;;;;;;;;;20.41;60.78;102551.56;5061802;28;2668;-56
2022/11/13 02:58:49;;;;;;;;;;;;;;;20.41;60.81;102547.91;5056684;28;3138;-56
2022/11/13 03:01:34;;;;;;;;;;;;;;;20.40;60.90;102544.28;5063638;28;2883;-57
2022/11/13 03:04:19;;;;;;;;;;;;;;;20.40;60.76;102544.28;5067979;28;1619;-56
2022/11/13 03:07:04;;;;;;;;;;;;;;;20.40;60.79;102549.28;5065797;28;2007;-56
2022/11/13 03:09:49;;;;;;;;;;;;;;;20.39;60.59;102542.78;5060406;28;2797;-57
2022/11/13 03:12:34;;;;;;;;;;;;;;;20.39;60.63;102542.03;5057308;28;2889;-57
2022/11/13 03:15:19;;;;;;;;;;;;;;;20.38;60.71;102535.50;5067935;28;2442;-56
2022/11/13 03:18:04;;;;;;;;;;;;;;;20.38;60.76;102532.63;5065089;28;2797;-57
2022/11/13 03:20:52;;;;;;;;;;;;;;;20.38;60.73;102537.63;5064443;28;2867;-55
2022/11/13 03:23:38;;;;;;;;;;;;;;;20.37;60.81;102528.25;5066658;28;2697;-57
2022/11/13 03:26:23;;;;;;;;;;;;;;;20.38;60.83;102531.88;5054000;28;2799;-57
2022/11/13 03:29:08;;;;;;;;;;;;;;;20.36;60.61;102532.47;5065365;28;2876;-57
2022/11/13 03:31:52;;;;;;;;;;;;;;;20.37;60.84;102528.25;5068682;28;2201;-57
2022/11/13 03:34:38;;;;;;;;;;;;;;;20.36;60.54;102526.72;5061473;28;2800;-57
2022/11/13 03:37:23;;;;;;;;;;;;;;;20.39;60.57;102527.66;5068671;28;2900;-57
2022/11/13 03:40:08;;;;;;;;;;;;;;;20.39;60.69;102537.03;5062972;28;2810;-57
2022/11/13 03:42:53;;;;;;;;;;;;;;;20.43;60.80;102534.44;5068242;28;2824;-57
2022/11/13 03:45:38;;;;;;;;;;;;;;;20.44;60.62;102533.06;5064690;28;2863;-57
2022/11/13 03:48:23;;;;;;;;;;;;;;;20.45;60.71;102543.22;5067371;28;2817;-58
2022/11/13 03:51:07;;;;;;;;;;;;;;;20.47;60.78;102543.34;5062949;28;3664;-57
2022/11/13 03:53:52;;;;;;;;;;;;;;;20.48;60.55;102542.00;5064108;28;2742;-57
2022/11/13 03:56:37;;;;;;;;;;;;;;;20.48;60.61;102550.63;5069019;28;2343;-57
2022/11/13 03:59:22;;;;;;;;;;;;;;;20.50;60.52;102545.03;5069461;28;1646;-56
2022/11/13 04:02:07;;;;;;;;;;;;;;;20.49;60.75;102543.50;5069405;28;2733;-57
2022/11/13 04:04:51;;;;;;;;;;;;;;;20.51;60.73;102537.91;5067769;28;2646;-57
2022/11/13 04:07:36;;;;;;;;;;;;;;;20.50;60.88;102539.28;5070058;28;2313;-57
2022/11/13 04:10:21;;;;;;;;;;;;;;;20.50;60.88;102532.75;5056952;28;3166;-58
2022/11/13 04:13:06;;;;;;;;;;;;;;;20.51;60.74;102526.38;5071230;28;2532;-57
2022/11/13 04:15:51;;;;;;;;;;;;;;;20.51;60.55;102523.50;5063630;28;2569;-57
2022/11/13 04:18:36;;;;;;;;;;;;;;;20.53;60.59;102525.03;5072412;28;2762;-57
2022/11/13 04:21:21;;;;;;;;;;;;;;;20.53;60.66;102510.66;5067337;28;2815;-57
2022/11/13 04:24:05;;;;;;;;;;;;;;;20.54;60.65;102523.66;5067598;28;2764;-54
2022/11/13 04:26:50;;;;;;;;;;;;;;;20.55;60.48;102508.66;5073177;28;1663;-56
2022/11/13 04:29:35;;;;;;;;;;;;;;;20.57;60.47;102508.06;5067779;28;2828;-57
2022/11/13 04:32:20;;;;;;;;;;;;;;;20.56;60.97;102503.66;5059388;28;2984;-57
2022/11/13 04:35:05;;;;;;;;;;;;;;;20.57;61.06;102505.19;5065218;28;3075;-56
2022/11/13 04:37:50;;;;;;;;;;;;;;;20.56;60.80;102509.41;5058244;28;2899;-57
2022/11/13 04:40:35;;;;;;;;;;;;;;;20.58;60.96;102506.72;5069380;28;2666;-57
2022/11/13 04:43:20;;;;;;;;;;;;;;;20.59;61.15;102508.22;5071149;28;1684;-57
2022/11/13 04:46:05;;;;;;;;;;;;;;;20.57;60.92;102508.84;5069401;28;1666;-57
2022/11/13 04:48:50;;;;;;;;;;;;;;;20.59;60.93;102503.25;5055274;28;2930;-57
2022/11/13 04:51:35;;;;;;;;;;;;;;;20.60;61.37;102506.88;5070624;28;1650;-57
2022/11/13 04:54:20;;;;;;;;;;;;;;;20.59;61.04;102491.72;5060711;28;2806;-57
2022/11/13 04:57:12;;;;;;;;;;;;;;;20.61;60.97;102499.72;5060244;28;2910;-58
2022/11/13 04:59:57;;;;;;;;;;;;;;;20.61;61.14;102508.38;5069809;28;1992;-56
2022/11/13 05:02:42;;;;;;;;;;;;;;;20.60;61.24;102504.00;5072866;28;1659;-57
2022/11/13 05:05:27;;;;;;;;;;;;;;;20.62;61.22;102504.13;5077804;28;1676;-56
2022/11/13 05:08:12;;;;;;;;;;;;;;;20.64;61.29;102507.16;5071689;28;2742;-57
2022/11/13 05:10:56;;;;;;;;;;;;;;;20.63;60.95;102503.50;5068651;28;2568;-56
2022/11/13 05:13:41;;;;;;;;;;;;;;;20.64;61.34;102504.28;5076836;28;1906;-57
2022/11/13 05:16:26;;;;;;;;;;;;;;;20.63;61.42;102502.75;5073682;28;1750;-57
2022/11/13 05:19:11;;;;;;;;;;;;;;;20.62;61.53;102507.75;5075143;28;2494;-57
2022/11/13 05:21:55;;;;;;;;;;;;;;;20.63;61.34;102503.50;5077449;28;1726;-57
2022/11/13 05:24:41;;;;;;;;;;;;;;;20.63;61.43;102500.63;5068599;28;2927;-57
2022/11/13 05:27:25;;;;;;;;;;;;;;;20.63;61.26;102502.75;5074673;28;1712;-57
2022/11/13 05:30:10;;;;;;;;;;;;;;;20.65;61.40;102500.78;5070536;28;2741;-57
2022/11/13 05:32:55;;;;;;;;;;;;;;;20.65;61.26;102505.78;5074003;28;1914;-57
2022/11/13 05:35:40;;;;;;;;;;;;;;;20.67;61.33;102497.28;5073781;28;1592;-57
2022/11/13 05:38:25;;;;;;;;;;;;;;;20.68;61.54;102493.03;5063553;28;2738;-57
2022/11/13 05:41:11;;;;;;;;;;;;;;;20.67;61.29;102497.28;5071063;28;2809;-57
2022/11/13 05:43:56;;;;;;;;;;;;;;;20.66;61.80;102498.66;5074409;28;1637;-57
2022/11/13 05:46:43;;;;;;;;;;;;;;;20.67;61.58;102498.03;5073554;28;1667;-57
2022/11/13 05:49:28;;;;;;;;;;;;;;;20.68;61.37;102498.78;5073008;28;2550;-57
2022/11/13 05:52:13;;;;;;;;;;;;;;;20.69;61.52;102500.31;5067928;28;2820;-58
2022/11/13 05:54:58;;;;;;;;;;;;;;;20.67;61.79;102491.53;5077449;28;1913;-57
2022/11/13 05:57:43;;;;;;;;;;;;;;;20.67;61.60;102491.53;5076111;28;1583;-54
2022/11/13 06:00:27;;;;;;;;;;;;;;;20.68;61.38;102493.03;5071564;28;2814;-57
2022/11/13 06:03:12;;;;;;;;;;;;;;;20.68;61.35;102493.03;5060504;28;2862;-57
2022/11/13 06:05:58;;;;;;;;;;;;;;;20.70;61.49;102487.41;5070519;28;2876;-57
2022/11/13 06:08:43;;;;;;;;;;;;;;;20.69;61.42;102480.16;5068933;28;2865;-56
2022/11/13 06:11:28;;;;;;;;;;;;;;;20.72;61.56;102487.56;5075604;28;1672;-57
2022/11/13 06:14:13;;;;;;;;;;;;;;;20.72;61.63;102481.81;5075826;28;1938;-55
2022/11/13 06:16:58;;;;;;;;;;;;;;;20.71;61.49;102475.31;5064825;28;2922;-56
2022/11/13 06:19:43;;;;;;;;;;;;;;;20.71;61.46;102474.56;5070935;28;2647;-56
2022/11/13 06:22:28;;;;;;;;;;;;;;;20.71;61.35;102468.78;5072619;28;3128;-56
2022/11/13 06:25:13;;;;;;;;;;;;;;;20.72;61.47;102464.53;5075377;28;1609;-56
2022/11/13 06:27:58;;;;;;;;;;;;;;;20.72;61.41;102464.53;5073318;28;1628;-55
2022/11/13 06:30:43;;;;;;;;;;;;;;;20.73;61.45;102466.06;5077059;28;1575;-57
2022/11/13 06:33:28;;;;;;;;;;;;;;;20.71;61.72;102455.16;5061018;28;2816;-57
2022/11/13 06:36:14;;;;;;;;;;;;;;;20.72;61.58;102461.66;5065259;28;2910;-57
2022/11/13 06:38:59;;;;;;;;;;;;;;;20.72;61.63;102464.53;5070323;28;2866;-55
2022/11/13 06:41:44;;;;;;;;;;;;;;;20.74;61.53;102447.41;5069472;28;2808;-57
2022/11/13 06:44:29;;;;;;;;;;;;;;;20.72;61.38;102458.78;5075459;28;2930;-57
2022/11/13 06:47:14;;;;;;;;;;;;;;;20.75;61.52;102451.78;5073728;28;2466;-57
2022/11/13 06:49:59;;;;;;;;;;;;;;;20.75;61.51;102451.03;5070189;28;2784;-57
2022/11/13 06:52:44;;;;;;;;;;;;;;;20.75;61.61;102451.03;5070614;28;2899;-56
2022/11/13 06:55:29;;;;;;;;;;;;;;;20.75;61.40;102446.03;5066504;28;1902;-56
2022/11/13 06:58:13;;;;;;;;;;;;;;;20.76;61.63;102450.44;5068678;28;1647;-57
2022/11/13 07:01:05;;;;;;;;;;;;;;;20.76;61.69;102455.44;5070283;28;2519;-57
2022/11/13 07:03:50;;;;;;;;;;;;;;;20.75;61.17;102451.03;5072553;28;2800;-54
2022/11/13 07:06:35;;;;;;;;;;;;;;;20.75;61.44;102442.41;5070443;28;2733;-56
2022/11/13 07:09:24;;;;;;;;;;;;;;;20.75;61.60;102440.28;5075411;28;1592;-56
2022/11/13 07:12:09;;;;;;;;;;;;;;;20.75;61.34;102442.41;5073613;28;2895;-56
2022/11/13 07:14:54;;;;;;;;;;;;;;;20.75;61.58;102431.63;5064137;28;2812;-54
2022/11/13 07:17:39;;;;;;;;;;;;;;;20.76;61.45;102441.06;5062539;28;1598;-57
2022/11/13 07:20:23;;;;;;;;;;;;;;;20.77;61.60;102436.78;5063841;28;2730;-57
2022/11/13 07:23:08;;;;;;;;;;;;;;;20.78;61.40;102436.19;5061149;28;2825;-57
2022/11/13 07:25:56;;;;;;;;;;;;;;;20.78;61.47;102433.31;5062659;28;2944;-57
2022/11/13 07:28:41;;;;;;;;;;;;;;;20.78;61.32;102433.31;5063401;28;2663;-57
2022/11/13 07:31:26;;;;;;;;;;;;;;;20.79;61.41;102429.03;5060482;28;2815;-56
2022/11/13 07:34:11;;;;;;;;;;;;;;;20.78;61.38;102436.19;5071049;28;1902;-56
2022/11/13 07:36:56;;;;;;;;;;;;;;;20.79;61.47;102434.06;5063049;28;2815;-56
2022/11/13 07:39:41;;;;;;;;;;;;;;;20.79;61.44;102434.81;5063027;28;1687;-56
2022/11/13 07:42:25;;;;;;;;;;;;;;;20.78;61.41;102439.06;5062688;28;1635;-56
2022/11/13 07:45:10;;;;;;;;;;;;;;;20.80;61.53;102450.72;5057131;28;2267;-57
2022/11/13 07:47:59;;;;;;;;;;;;;;;20.77;61.46;102431.78;5070285;28;2983;-57
2022/11/13 07:50:44;;;;;;;;;;;;;;;20.77;61.48;102434.66;5069979;28;2763;-57
2022/11/13 07:53:29;;;;;;;;;;;;;;;20.78;61.62;102444.81;5061725;28;2972;-57
2022/11/13 07:56:13;;;;;;;;;;;;;;;20.78;61.54;102433.31;5069677;28;2186;-57
2022/11/13 07:59:05;;;;;;;;;;;;;;;20.78;61.39;102433.31;5074597;28;1588;-57
2022/11/13 08:01:50;;;;;;;;;;;;;;;20.79;61.44;102429.03;5064906;28;1707;-55
2022/11/13 08:04:35;;;;;;;;;;;;;;;20.84;61.39;102430.84;5064950;28;2809;-59
2022/11/13 08:07:20;;;;;;;;;;;;;;;20.89;61.17;102426.88;5060933;28;2930;-55
2022/11/13 08:10:06;;;;;;;;;;;;;;;20.85;61.31;102420.84;5067523;28;2502;-56
2022/11/13 08:13:02;;;;;;;;;;;;;;;20.85;61.21;102431.59;5075939;28;1616;-58
2022/11/13 08:15:47;;;;;;;;;;;;;;;20.84;61.39;102425.06;5074191;28;1971;-58
2022/11/13 08:18:32;;;;;;;;;;;;;;;20.84;61.22;102427.94;5062255;28;2929;-58
2022/11/13 08:21:17;;;;;;;;;;;;;;;20.83;61.43;102429.34;5069407;28;3342;-59
2022/11/13 08:24:02;;;;;;;;;;;;;;;20.83;61.39;102429.34;5067333;28;2788;-57
2022/11/13 08:26:46;;;;;;;;;;;;;;;20.85;61.54;102420.84;5062608;28;2866;-56
2022/11/13 08:29:31;;;;;;;;;;;;;;;20.80;60.77;102424.81;5066602;28;2817;-57
2022/11/13 08:32:17;;;;;;;;;;;;;;;20.72;59.50;102427.13;5054272;28;2895;-57
2022/11/13 08:35:02;;;;;;;;;;;;;;;20.75;60.16;102423.00;5058600;28;2821;-57
2022/11/13 08:37:47;;;;;;;;;;;;;;;20.88;60.54;102418.84;5069406;28;2836;-60
2022/11/13 08:40:31;;;;;;;;;;;;;;;20.88;60.56;102422.47;5059633;28;2860;-57
2022/11/13 08:43:20;;;;;;;;;;;;;;;20.92;60.38;102419.88;5069995;28;2908;-58
2022/11/13 08:46:22;;;;;;;;;;;;;;;20.89;60.64;102421.13;5066531;28;2883;-58
2022/11/13 08:49:07;;;;;;;;;;;;;;;20.87;60.48;102418.09;5070877;28;2944;-58
2022/11/13 08:51:52;;;;;;;;;;;;;;;20.86;60.61;102425.22;5069393;28;2911;-58
2022/11/13 08:54:37;;;;;;;;;;;;;;;20.85;60.88;102425.84;5070844;28;2829;-58
2022/11/13 08:57:22;;;;;;;;;;;;;;;20.86;60.78;102428.09;5072402;28;2772;-58
2022/11/13 09:00:07;;;;;;;;;;;;;;;20.89;60.59;102424.00;5064958;28;2801;-58
2022/11/13 09:02:53;;;;;;;;;;;;;;;20.89;60.89;102421.13;5064566;28;2749;-58
2022/11/13 09:05:38;;;;;;;;;;;;;;;20.87;60.82;102418.09;5064824;28;2993;-58
2022/11/13 09:08:23;;;;;;;;;;;;;;;20.87;60.68;102418.09;5063873;28;2704;-58
2022/11/13 09:11:08;;;;;;;;;;;;;;;20.86;60.93;102421.59;5064210;28;2834;-58
2022/11/13 09:13:53;;;;;;;;;;;;;;;20.84;61.06;102413.56;5062428;28;2910;-58
2022/11/13 09:16:38;;;;;;;;;;;;;;;20.85;61.09;102411.44;5064353;28;2946;-59
2022/11/13 09:19:23;;;;;;;;;;;;;;;20.85;60.99;102402.81;5062204;28;2845;-57
2022/11/13 09:22:08;;;;;;;;;;;;;;;20.83;60.96;102406.31;5057512;28;2988;-58
2022/11/13 09:24:52;;;;;;;;;;;;;;;20.82;60.92;102404.03;5062899;28;2964;-58
2022/11/13 09:27:37;;;;;;;;;;;;;;;20.82;60.93;102404.03;5060033;28;2992;-58
2022/11/13 09:30:22;;;;;;;;;;;;;;;20.82;60.88;102396.16;5064796;28;2989;-58
2022/11/13 09:33:08;;;;;;;;;;;;;;;20.82;61.23;102409.78;5065496;28;3162;-58
2022/11/13 09:35:53;;;;;;;;;;;;;;;20.82;61.09;102404.81;5071498;28;3018;-58
2022/11/13 09:38:38;;;;;;;;;;;;;;;20.80;61.13;102413.28;5059029;28;2933;-58
2022/11/13 09:41:27;;;;;;;;;;;;;;;20.80;61.05;102418.28;5062154;28;3475;-58
2022/11/13 09:44:32;;;;;;;;;;;;;;;20.81;61.22;102411.16;5062452;28;2778;-57
2022/11/13 09:47:19;;;;;;;;;;;;;;;20.79;61.32;102406.00;5061530;28;2929;-58
2022/11/13 09:50:04;;;;;;;;;;;;;;;20.79;61.27;102408.91;5066157;28;2956;-57
2022/11/13 09:52:50;;;;;;;;;;;;;;;20.79;61.14;102405.25;5061591;28;2888;-58
2022/11/13 09:55:37;;;;;;;;;;;;;;;20.79;61.34;102411.78;5066297;28;2710;-58
2022/11/13 09:58:28;;;;;;;;;;;;;;;20.79;61.25;102405.25;5065848;28;3018;-57
2022/11/13 10:01:21;;;;;;;;;;;;;;;20.80;61.30;102413.28;5065005;28;2948;-58
2022/11/13 10:04:06;;;;;;;;;;;;;;;20.79;61.03;102396.63;5065151;28;2919;-58
2022/11/13 10:07:12;;;;;;;;;;;;;;;20.79;61.05;102394.50;5061470;28;3082;-57
2022/11/13 10:10:19;;;;;;;;;;;;;;;20.80;61.03;102390.25;5068924;28;2804;-58
2022/11/13 10:13:03;;;;;;;;;;;;;;;20.81;61.10;102380.25;5056307;28;3061;-57
2022/11/13 10:15:50;;;;;;;;;;;;;;;20.84;61.09;102372.50;5063266;28;2813;-57
2022/11/13 10:18:35;;;;;;;;;;;;;;;20.85;60.69;102374.75;5063562;28;2874;-58
2022/11/13 10:21:26;;;;;;;;;;;;;;;20.86;61.02;102376.25;5067275;28;2956;-57
2022/11/13 10:24:20;;;;;;;;;;;;;;;20.87;61.13;102371.28;5063104;28;2933;-58
2022/11/13 10:27:09;;;;;;;;;;;;;;;20.85;60.87;102369.00;5066517;28;3006;-58
2022/11/13 10:29:55;;;;;;;;;;;;;;;20.86;60.83;102364.75;5065839;28;2846;-57
2022/11/13 10:32:40;;;;;;;;;;;;;;;20.86;60.83;102358.25;5067167;28;3075;-57
2022/11/13 10:35:27;;;;;;;;;;;;;;;20.87;60.95;102357.63;5056327;28;2948;-58
2022/11/13 10:38:21;;;;;;;;;;;;;;;20.87;61.05;102359.75;5060775;28;3390;-58
2022/11/13 10:41:06;;;;;;;;;;;;;;;20.86;60.99;102350.34;5063394;28;2796;-58
2022/11/13 10:43:52;;;;;;;;;;;;;;;20.89;60.91;102357.78;5060434;28;2696;-59
2022/11/13 10:46:37;;;;;;;;;;;;;;;20.87;61.14;102357.63;5069368;28;2824;-60
2022/11/13 10:49:24;;;;;;;;;;;;;;;20.86;61.11;102346.72;5078423;28;1646;-60
2022/11/13 10:52:15;;;;;;;;;;;;;;;20.86;60.82;102346.72;5062338;28;2788;-58
2022/11/13 10:55:11;;;;;;;;;;;;;;;20.87;61.13;102343.25;5078341;28;1997;-60
2022/11/13 10:57:56;;;;;;;;;;;;;;;20.90;60.99;102344.88;5074490;28;1572;-59
2022/11/13 11:00:43;;;;;;;;;;;;;;;20.90;60.87;102347.75;5073155;28;2822;-60
2022/11/13 11:03:29;;;;;;;;;;;;;;;20.92;60.70;102341.38;5065577;28;2775;-60
2022/11/13 11:06:14;;;;;;;;;;;;;;;20.91;60.83;102337.75;5059548;28;2822;-60
2022/11/13 11:09:06;;;;;;;;;;;;;;;20.91;61.00;102331.22;5072036;28;2760;-60
2022/11/13 11:12:14;;;;;;;;;;;;;;;20.91;60.74;102332.00;5070090;28;3060;-60
2022/11/13 11:15:02;;;;;;;;;;;;;;;20.89;60.83;102328.97;5069720;28;2673;-61
2022/11/13 11:17:56;;;;;;;;;;;;;;;20.90;60.82;102324.72;5065963;28;2811;-60
2022/11/13 11:20:42;;;;;;;;;;;;;;;20.90;60.96;102318.97;5061841;28;2989;-60
2022/11/13 11:23:44;;;;;;;;;;;;;;;20.89;61.00;102303.06;5067218;28;2816;-60
2022/11/13 11:26:30;;;;;;;;;;;;;;;20.91;60.80;102308.97;5065780;28;2905;-61
2022/11/13 11:29:32;;;;;;;;;;;;;;;20.87;61.55;102302.94;5063304;28;2588;-66
2022/11/13 11:32:36;;;;;;;;;;;;;;;20.91;62.41;102297.44;5061874;28;2894;-65
2022/11/13 11:35:22;;;;;;;;;;;;;;;21.03;61.97;102303.25;5056303;28;3089;-66
2022/11/13 11:38:13;;;;;;;;;;;;;;;21.10;62.79;102301.53;5069599;28;2970;-76
2022/11/13 11:41:01;;;;;;;;;;;;;;;21.15;62.43;102303.31;5064127;28;2945;-72
2022/11/13 11:44:00;;;;;;;;;;;;;;;21.22;62.73;102302.34;5065182;28;3012;-72
2022/11/13 11:46:46;;;;;;;;;;;;;;;21.25;62.68;102303.97;5056493;28;2933;-70
2022/11/13 11:49:31;;;;;;;;;;;;;;;21.29;62.56;102298.47;5054043;28;2926;-74
2022/11/13 11:52:26;;;;;;;;;;;;;;;21.33;62.46;102289.34;5052677;28;3021;-71
2022/11/13 11:55:28;;;;;;;;;;;;;;;21.48;62.67;102288.16;5073734;28;2931;-71
2022/11/13 11:58:35;;;;;;;;;;;;;;;21.42;62.19;102291.41;5047230;28;2836;-66
2022/11/13 12:01:20;;;;;;;;;;;;;;;21.34;61.77;102285.84;5051523;28;2745;-68
2022/11/13 12:04:09;;;;;;;;;;;;;;;21.41;61.23;102271.84;5049804;28;5300;-60
2022/11/13 12:07:12;;;;;;;;;;;;;;;21.47;61.51;102272.25;5051997;28;2929;-61
2022/11/13 12:09:57;;;;;;;;;;;;;;;21.56;61.46;102265.63;5056430;28;2866;-70
2022/11/13 12:12:52;;;;;;;;;;;;;;;21.63;61.35;102270.41;5048358;28;2898;-68
2022/11/13 12:15:55;;;;;;;;;;;;;;;21.73;61.20;102262.38;5058701;28;2962;-69
2022/11/13 12:18:43;;;;;;;;;;;;;;;21.78;60.67;102262.66;5053834;28;2645;-72
2022/11/13 12:21:35;;;;;;;;;;;;;;;21.79;60.90;102258.41;5041578;28;4753;-69
2022/11/13 12:24:42;;;;;;;;;;;;;;;21.77;60.83;102256.13;5057376;28;2977;-69
2022/11/13 12:27:37;;;;;;;;;;;;;;;21.71;61.18;102249.97;5050428;28;3041;-68
2022/11/13 12:30:24;;;;;;;;;;;;;;;21.86;61.28;102240.09;5048300;28;3495;-69
2022/11/13 12:33:20;;;;;;;;;;;;;;;21.91;60.33;102236.06;5037199;28;4791;-70
2022/11/13 12:36:06;;;;;;;;;;;;;;;21.94;59.87;102231.94;5049317;28;2913;-68
2022/11/13 12:38:55;;;;;;;;;;;;;;;21.95;59.76;102231.31;5047840;28;1663;-69
2022/11/13 12:41:43;;;;;;;;;;;;;;;21.84;59.63;102228.44;5047938;28;2453;-70
2022/11/13 12:44:29;;;;;;;;;;;;;;;21.83;59.89;102226.91;5056380;28;2471;-68
2022/11/13 12:47:15;;;;;;;;;;;;;;;21.90;59.83;102228.81;5049174;28;2825;-68
2022/11/13 12:50:02;;;;;;;;;;;;;;;21.92;59.49;102226.03;5051933;28;2355;-68
2022/11/13 12:53:00;;;;;;;;;;;;;;;21.94;59.38;102223.28;5053552;28;2969;-66
2022/11/13 12:55:52;;;;;;;;;;;;;;;21.92;59.73;102223.16;5067706;28;2547;-67
2022/11/13 12:58:37;;;;;;;;;;;;;;;21.83;59.47;102210.38;5054066;28;3300;-65
2022/11/13 13:01:22;;;;;;;;;;;;;;;21.79;59.57;102200.72;5057345;28;2919;-66
2022/11/13 13:04:10;;;;;;;;;;;;;;;21.80;59.78;102202.22;5053690;28;3024;-65
2022/11/13 13:06:58;;;;;;;;;;;;;;;21.75;59.28;102195.44;5058114;28;2697;-64
2022/11/13 13:09:49;;;;;;;;;;;;;;;21.75;58.84;102184.66;5050271;28;2942;-65
2022/11/13 13:12:52;;;;;;;;;;;;;;;21.78;58.67;102190.56;5059672;28;2882;-65
2022/11/13 13:15:38;;;;;;;;;;;;;;;21.75;58.91;102183.91;5060628;28;3044;-65
2022/11/13 13:18:25;;;;;;;;;;;;;;;21.77;58.77;102186.94;5056318;28;3020;-65
2022/11/13 13:21:11;;;;;;;;;;;;;;;21.75;59.05;102176.00;5055254;28;3020;-67
2022/11/13 13:23:56;;;;;;;;;;;;;;;21.61;56.79;102180.16;5050731;28;2934;-68
2022/11/13 13:26:45;;;;;;;;;;;;;;;21.59;56.77;102177.91;5057513;28;2902;-65
2022/11/13 13:29:31;;;;;;;;;;;;;;;21.74;57.11;102174.53;5063448;28;3068;-66
2022/11/13 13:32:34;;;;;;;;;;;;;;;21.79;57.85;102175.53;5047960;28;3534;-68
2022/11/13 13:35:20;;;;;;;;;;;;;;;21.71;58.21;102172.88;5058850;28;2982;-66
2022/11/13 13:38:12;;;;;;;;;;;;;;;21.68;58.36;102171.25;5059768;28;3103;-65
2022/11/13 13:41:23;;;;;;;;;;;;;;;21.62;58.50;102176.63;5064751;28;3087;-65
2022/11/13 13:44:11;;;;;;;;;;;;;;;21.52;57.76;102168.13;5050236;28;3001;-66
2022/11/13 13:46:56;;;;;;;;;;;;;;;21.58;57.41;102164.88;5059161;28;2617;-65
2022/11/13 13:49:41;;;;;;;;;;;;;;;21.58;57.86;102158.34;5061441;28;2950;-65
2022/11/13 13:52:30;;;;;;;;;;;;;;;21.65;58.16;102158.09;5063806;28;3098;-65
2022/11/13 13:55:21;;;;;;;;;;;;;;;21.66;58.25;102159.59;5066544;28;1995;-65
2022/11/13 13:58:07;;;;;;;;;;;;;;;21.67;58.11;102149.59;5060690;28;2918;-65
2022/11/13 14:00:59;;;;;;;;;;;;;;;21.67;58.34;102161.13;5060031;28;2968;-65
2022/11/13 14:04:12;;;;;;;;;;;;;;;21.65;58.56;102160.25;5055525;28;2984;-67
2022/11/13 14:06:58;;;;;;;;;;;;;;;20.89;55.07;102161.97;5056421;28;3318;-65
2022/11/13 14:09:43;;;;;;;;;;;;;;;21.33;56.18;102153.94;5052163;28;3527;-69
2022/11/13 14:12:28;;;;;;;;;;;;;;;21.56;56.68;102156.09;5052269;28;3166;-69
2022/11/13 14:15:43;;;;;;;;;;;;;;;21.63;56.93;102154.34;5057647;28;2928;-69
2022/11/13 14:18:27;;;;;;;;;;;;;;;21.59;57.34;102159.84;5048828;28;4714;-71
2022/11/13 14:21:15;;;;;;;;;;;;;;;21.71;57.70;102161.34;5060228;28;2937;-71
2022/11/13 14:24:02;;;;;;;;;;;;;;;21.84;57.39;102151.31;5060875;28;3143;-69
2022/11/13 14:26:51;;;;;;;;;;;;;;;21.88;57.73;102147.94;5064094;28;2965;-70
2022/11/13 14:29:43;;;;;;;;;;;;;;;21.95;58.03;102141.91;5058509;28;5170;-70
2022/11/13 14:32:29;;;;;;;;;;;;;;;21.90;57.94;102145.19;5063475;28;3258;-69